Time;durP1;ratioP1;P1;durP2;ratioP2;P2;SDS_P1;SDS_P2;PMS_P1;PMS_P2;Temp;Humidity;BMP_temperature;BMP_pressure;BME280_temperature;BME280_humidity;BME280_pressure;Samples;Min_cycle;Max_cycle;Signal;HPM_P1;HPM_P2
2024/05/02 00:02:26;;;;;;;153.33;51.50;;;21.40;79.70;;;;;;5405817;26;20319;-57
2024/05/02 00:04:56;;;;;;;152.73;50.90;;;21.40;78.70;;;;;;5405470;26;20562;-50
2024/05/02 00:07:27;;;;;;;152.90;50.93;;;21.30;77.80;;;;;;5406041;26;20277;-50
2024/05/02 00:09:57;;;;;;;152.53;50.57;;;21.30;78.80;;;;;;5405418;26;20262;-50
2024/05/02 00:12:28;;;;;;;153.63;51.67;;;21.20;79.20;;;;;;5405958;26;20251;-50
2024/05/02 00:15:00;;;;;;;152.83;51.10;;;21.30;79.50;;;;;;5406493;26;20227;-50
2024/05/02 00:17:30;;;;;;;152.97;51.23;;;21.20;79.00;;;;;;5409371;26;20286;-60
2024/05/02 00:20:00;;;;;;;152.53;50.73;;;21.20;79.40;;;;;;5408780;26;20244;-50
2024/05/02 00:22:30;;;;;;;153.33;51.37;;;21.20;79.20;;;;;;5408041;26;20248;-51
2024/05/02 00:25:00;;;;;;;153.03;51.17;;;21.20;78.50;;;;;;5408315;26;20231;-50
2024/05/02 00:27:30;;;;;;;152.57;50.77;;;21.10;80.00;;;;;;5409189;26;20240;-50
2024/05/02 00:30:03;;;;;;;153.67;51.13;;;21.20;80.40;;;;;;5408377;26;20239;-50
2024/05/02 00:32:33;;;;;;;154.13;51.63;;;21.10;79.40;;;;;;5408998;26;20235;-50
2024/05/02 00:35:03;;;;;;;153.80;51.60;;;21.10;79.90;;;;;;5408759;26;20232;-51
2024/05/02 00:37:33;;;;;;;152.33;50.83;;;21.10;79.50;;;;;;5421232;26;20937;-52
2024/05/02 00:40:04;;;;;;;153.30;51.40;;;21.00;80.00;;;;;;5454556;26;20699;-53
2024/05/02 00:42:35;;;;;;;153.27;50.93;;;21.00;79.70;;;;;;5454428;26;20238;-50
2024/05/02 00:45:08;;;;;;;153.77;51.33;;;21.00;80.10;;;;;;5435764;26;20247;-50
2024/05/02 00:47:38;;;;;;;152.90;50.97;;;20.90;79.90;;;;;;5409320;26;20673;-51
2024/05/02 00:50:09;;;;;;;153.53;51.57;;;20.90;80.20;;;;;;5408571;26;20273;-50
2024/05/02 00:52:39;;;;;;;152.63;50.83;;;20.90;80.20;;;;;;5408617;26;20248;-50
2024/05/02 00:55:11;;;;;;;153.67;51.27;;;20.90;80.30;;;;;;5407748;26;20243;-50
2024/05/02 00:57:42;;;;;;;153.37;51.27;;;20.90;80.30;;;;;;5408709;26;20633;-55
2024/05/02 01:00:15;;;;;;;152.83;50.93;;;20.90;80.10;;;;;;5408048;26;20232;-48
2024/05/02 01:02:45;;;;;;;153.43;51.47;;;20.80;80.60;;;;;;5408200;26;20318;-62
2024/05/02 01:05:15;;;;;;;153.17;50.63;;;20.80;80.30;;;;;;5408040;26;20235;-49
2024/05/02 01:07:47;;;;;;;153.67;51.27;;;20.70;80.70;;;;;;5408395;26;20605;-48
2024/05/02 01:10:17;;;;;;;153.10;50.87;;;20.70;80.90;;;;;;5408301;26;20298;-49
2024/05/02 01:12:49;;;;;;;153.07;50.90;;;20.70;80.90;;;;;;5408367;26;20605;-60
2024/05/02 01:15:22;;;;;;;153.07;50.97;;;20.70;81.20;;;;;;5408157;26;20723;-54
2024/05/02 01:17:52;;;;;;;152.90;50.90;;;20.70;81.10;;;;;;5376898;26;20812;-51
2024/05/02 01:20:22;;;;;;;152.50;50.70;;;20.70;81.10;;;;;;5408094;26;20728;-60
2024/05/02 01:22:55;;;;;;;153.17;51.10;;;20.60;81.00;;;;;;5408358;26;20338;-59
2024/05/02 01:25:25;;;;;;;152.50;50.87;;;20.60;81.50;;;;;;5444026;26;20315;-54
2024/05/02 01:27:55;;;;;;;153.00;50.70;;;20.50;82.10;;;;;;5407256;26;20243;-49
2024/05/02 01:30:25;;;;;;;152.87;50.63;;;20.50;81.40;;;;;;5408146;26;20277;-63
2024/05/02 01:32:55;;;;;;;152.87;50.90;;;20.50;82.20;;;;;;5407732;26;20451;-49
2024/05/02 01:35:27;;;;;;;153.47;50.73;;;20.50;82.50;;;;;;5407955;26;20312;-59
2024/05/02 01:38:00;;;;;;;153.10;50.87;;;20.40;82.30;;;;;;5426806;26;20288;-51
2024/05/02 01:40:30;;;;;;;153.17;50.87;;;20.40;82.80;;;;;;5454009;26;20268;-55
2024/05/02 01:43:00;;;;;;;152.57;50.37;;;20.50;83.70;;;;;;5453765;26;20280;-49
2024/05/02 01:45:30;;;;;;;153.50;50.87;;;20.30;83.50;;;;;;5427085;26;20278;-63
2024/05/02 01:48:00;;;;;;;152.13;49.90;;;20.30;84.30;;;;;;5407842;26;20311;-49
2024/05/02 01:50:30;;;;;;;152.93;50.57;;;20.30;83.80;;;;;;5408033;26;20231;-50
2024/05/02 01:53:03;;;;;;;152.30;50.07;;;20.20;82.20;;;;;;5408044;26;20243;-49
2024/05/02 01:55:35;;;;;;;153.10;50.53;;;20.30;84.10;;;;;;5407607;26;20259;-50
2024/05/02 01:58:05;;;;;;;152.60;50.20;;;20.00;82.80;;;;;;5407264;26;20235;-50
2024/05/02 02:00:35;;;;;;;152.23;49.90;;;20.10;84.90;;;;;;5407552;26;20243;-49
2024/05/02 02:03:05;;;;;;;153.07;50.57;;;20.00;82.60;;;;;;5407371;26;20248;-48
2024/05/02 02:05:35;;;;;;;152.50;50.10;;;19.90;83.50;;;;;;5407431;26;20335;-55
2024/05/02 02:08:08;;;;;;;152.87;50.17;;;20.10;83.90;;;;;;5407651;26;20240;-49
2024/05/02 02:10:38;;;;;;;153.10;50.57;;;20.10;83.20;;;;;;5407926;26;20672;-53
2024/05/02 02:13:08;;;;;;;152.87;50.03;;;20.10;85.20;;;;;;5406976;26;20299;-49
2024/05/02 02:15:38;;;;;;;152.40;50.30;;;20.20;83.90;;;;;;5407271;26;20295;-51
2024/05/02 02:18:09;;;;;;;152.73;50.33;;;20.20;84.40;;;;;;5407456;26;20833;-49
2024/05/02 02:20:39;;;;;;;152.97;50.20;;;20.10;84.50;;;;;;5407499;26;20318;-51
2024/05/02 02:23:12;;;;;;;153.70;50.67;;;20.10;83.70;;;;;;5406964;26;20247;-49
2024/05/02 02:25:42;;;;;;;152.43;50.07;;;20.00;84.90;;;;;;5407479;26;20784;-50
2024/05/02 02:28:12;;;;;;;153.03;50.60;;;20.10;84.00;;;;;;5406753;26;20323;-53
2024/05/02 02:30:42;;;;;;;152.70;50.40;;;20.10;84.60;;;;;;5407195;26;20233;-51
2024/05/02 02:33:12;;;;;;;152.93;50.43;;;20.00;84.30;;;;;;5406974;26;20285;-58
2024/05/02 02:35:42;;;;;;;153.13;50.47;;;19.90;82.90;;;;;;5407584;26;20239;-48
2024/05/02 02:38:15;;;;;;;152.07;50.00;;;19.90;84.50;;;;;;5425149;26;20324;-51
2024/05/02 02:40:45;;;;;;;152.27;50.07;;;19.90;85.30;;;;;;5453256;26;20333;-48
2024/05/02 02:43:15;;;;;;;152.23;49.93;;;19.90;85.50;;;;;;5452540;26;20280;-51
2024/05/02 02:45:45;;;;;;;152.63;50.13;;;19.70;85.50;;;;;;5421690;26;20274;-52
2024/05/02 02:48:15;;;;;;;153.10;50.40;;;19.80;85.30;;;;;;5406834;26;20338;-49
2024/05/02 02:50:45;;;;;;;152.40;49.73;;;19.80;87.10;;;;;;5407092;26;20223;-60
2024/05/02 02:53:18;;;;;;;152.77;50.27;;;19.90;85.50;;;;;;5407163;26;20248;-59
2024/05/02 02:55:48;;;;;;;152.83;50.17;;;19.80;84.20;;;;;;5406736;26;20319;-51
2024/05/02 02:58:18;;;;;;;152.90;50.37;;;19.70;85.50;;;;;;5406686;26;20267;-48
2024/05/02 03:00:48;;;;;;;152.87;50.37;;;19.80;86.20;;;;;;5407068;26;20570;-57
2024/05/02 03:03:18;;;;;;;152.93;50.20;;;19.80;86.90;;;;;;5406571;26;20323;-55
2024/05/02 03:05:51;;;;;;;152.03;49.83;;;19.70;87.40;;;;;;5406857;26;20700;-49
2024/05/02 03:08:25;;;;;;;152.27;49.93;;;19.80;87.40;;;;;;5406560;26;20359;-60
2024/05/02 03:10:55;;;;;;;152.60;50.13;;;19.70;86.60;;;;;;5406887;26;20748;-59
2024/05/02 03:13:26;;;;;;;153.10;50.43;;;19.70;86.90;;;;;;5406309;26;20244;-48
2024/05/02 03:15:56;;;;;;;152.20;50.00;;;19.70;86.80;;;;;;5406710;26;20235;-48
2024/05/02 03:18:26;;;;;;;152.33;50.20;;;19.60;87.10;;;;;;5406001;26;20334;-50
2024/05/02 03:20:56;;;;;;;151.93;49.80;;;19.70;87.40;;;;;;5407000;26;20255;-49
2024/05/02 03:23:28;;;;;;;152.37;50.13;;;19.60;88.10;;;;;;5405870;26;20723;-49
2024/05/02 03:25:58;;;;;;;153.33;50.63;;;19.60;87.10;;;;;;5443547;26;20227;-48
2024/05/02 03:28:28;;;;;;;152.20;50.03;;;19.50;88.20;;;;;;5406278;26;20665;-49
2024/05/02 03:30:58;;;;;;;152.37;50.23;;;19.60;86.20;;;;;;5405339;26;20231;-48
2024/05/02 03:33:28;;;;;;;152.53;50.03;;;19.60;86.30;;;;;;5396500;26;20244;-48
2024/05/02 03:35:58;;;;;;;152.07;49.90;;;19.50;87.40;;;;;;5402437;26;20746;-48
2024/05/02 03:38:31;;;;;;;152.10;49.87;;;19.50;87.30;;;;;;5403319;26;20255;-48
2024/05/02 03:41:01;;;;;;;152.10;49.87;;;19.40;87.90;;;;;;5404244;26;20255;-48
2024/05/02 03:43:31;;;;;;;152.33;49.97;;;19.50;87.20;;;;;;5403128;26;20330;-48
2024/05/02 03:46:01;;;;;;;152.03;49.67;;;19.50;87.00;;;;;;5404758;26;20259;-48
2024/05/02 03:48:31;;;;;;;152.53;50.13;;;19.50;87.30;;;;;;5401892;26;20263;-48
2024/05/02 03:51:01;;;;;;;152.37;49.90;;;19.50;87.90;;;;;;5403644;26;20345;-50
2024/05/02 03:53:34;;;;;;;152.27;50.10;;;19.50;87.20;;;;;;5394649;26;20355;-48
2024/05/02 03:56:04;;;;;;;152.10;50.07;;;19.50;86.40;;;;;;5406299;26;20724;-48
2024/05/02 03:58:34;;;;;;;152.77;50.27;;;19.30;87.00;;;;;;5416908;26;20999;-48
2024/05/02 04:01:04;;;;;;;152.70;50.33;;;19.40;88.00;;;;;;5407328;26;20299;-48
2024/05/02 04:03:35;;;;;;;152.17;49.93;;;19.40;86.90;;;;;;5405855;26;20831;-47
2024/05/02 04:06:05;;;;;;;152.30;50.00;;;19.40;85.80;;;;;;5403459;26;20300;-48
2024/05/02 04:08:38;;;;;;;152.17;50.07;;;19.40;85.70;;;;;;5406828;26;20663;-48
2024/05/02 04:11:08;;;;;;;152.70;50.00;;;19.40;86.90;;;;;;5407216;26;20690;-49
2024/05/02 04:13:38;;;;;;;151.93;49.57;;;19.30;86.60;;;;;;5398966;26;20340;-49
2024/05/02 04:16:10;;;;;;;152.60;49.87;;;19.30;86.00;;;;;;5407436;26;20818;-49
2024/05/02 04:18:40;;;;;;;152.20;50.00;;;19.40;88.00;;;;;;5405439;26;20289;-49
2024/05/02 04:21:10;;;;;;;152.17;49.73;;;19.30;88.00;;;;;;5407768;26;20263;-49
2024/05/02 04:23:43;;;;;;;152.13;49.73;;;19.40;87.60;;;;;;5405522;26;20248;-48
2024/05/02 04:26:14;;;;;;;151.77;49.70;;;19.20;87.10;;;;;;5407857;26;20335;-48
2024/05/02 04:28:43;;;;;;;152.40;49.87;;;19.30;87.00;;;;;;5406130;26;20441;-48
2024/05/02 04:31:13;;;;;;;151.73;49.30;;;19.40;87.50;;;;;;5407058;26;20772;-48
2024/05/02 04:33:44;;;;;;;151.90;49.67;;;19.30;87.00;;;;;;5442693;26;20604;-48
2024/05/02 04:36:14;;;;;;;151.90;49.57;;;19.40;87.10;;;;;;5407569;26;20247;-50
2024/05/02 04:38:46;;;;;;;151.93;49.77;;;19.40;87.60;;;;;;5404934;26;20255;-48
2024/05/02 04:41:16;;;;;;;152.60;50.17;;;19.40;87.10;;;;;;5406966;26;20783;-48
2024/05/02 04:43:46;;;;;;;152.07;49.70;;;19.40;86.70;;;;;;5405606;26;20339;-48
2024/05/02 04:46:16;;;;;;;152.70;50.17;;;19.50;87.10;;;;;;5406507;26;20771;-48
2024/05/02 04:48:47;;;;;;;151.33;49.27;;;19.50;87.00;;;;;;5404821;26;20252;-48
2024/05/02 04:51:17;;;;;;;151.93;49.80;;;19.40;86.10;;;;;;5407038;26;20243;-48
2024/05/02 04:53:49;;;;;;;151.60;49.57;;;19.40;85.30;;;;;;5399682;26;20256;-50
2024/05/02 04:56:19;;;;;;;152.27;50.10;;;19.30;87.70;;;;;;5404414;26;20600;-48
2024/05/02 04:58:49;;;;;;;152.53;50.27;;;19.50;88.50;;;;;;5408754;26;20255;-49
2024/05/02 05:01:19;;;;;;;152.50;50.10;;;19.50;86.60;;;;;;5405089;26;20288;-49
2024/05/02 05:03:49;;;;;;;152.00;49.90;;;19.50;88.10;;;;;;5404875;26;20297;-49
2024/05/02 05:06:20;;;;;;;152.27;50.23;;;19.50;87.40;;;;;;5416568;26;20254;-48
2024/05/02 05:08:52;;;;;;;151.73;49.83;;;19.50;88.00;;;;;;5391108;26;20726;-48
2024/05/02 05:11:22;;;;;;;151.93;49.93;;;19.60;88.70;;;;;;5407220;26;20259;-48
2024/05/02 05:13:53;;;;;;;152.27;50.03;;;19.50;85.90;;;;;;5404863;26;20247;-48
2024/05/02 05:16:23;;;;;;;151.93;49.83;;;19.70;88.60;;;;;;5403423;26;20751;-49
2024/05/02 05:18:53;;;;;;;151.97;49.87;;;19.60;86.20;;;;;;5442038;26;20262;-49
2024/05/02 05:21:23;;;;;;;152.63;50.47;;;19.70;85.20;;;;;;5408002;26;20236;-49
2024/05/02 05:23:56;;;;;;;152.23;50.17;;;19.70;84.60;;;;;;5407367;26;20335;-50
2024/05/02 05:26:26;;;;;;;152.47;50.33;;;19.70;86.00;;;;;;5408407;26;20227;-49
2024/05/02 05:28:56;;;;;;;152.23;50.13;;;19.90;87.60;;;;;;5407618;26;20235;-49
2024/05/02 05:31:26;;;;;;;151.83;50.20;;;19.80;85.80;;;;;;5407471;26;20223;-49
2024/05/02 05:33:56;;;;;;;152.00;50.20;;;19.90;84.70;;;;;;5407106;26;20278;-49
2024/05/02 05:36:26;;;;;;;151.70;50.10;;;19.90;84.40;;;;;;5406805;26;20299;-50
2024/05/02 05:38:59;;;;;;;151.80;50.17;;;20.10;85.60;;;;;;5423376;26;20233;-49
2024/05/02 05:41:29;;;;;;;152.37;50.23;;;20.20;84.50;;;;;;5368364;26;20344;-49
2024/05/02 05:43:59;;;;;;;152.53;50.43;;;20.30;83.20;;;;;;5367521;26;20228;-49
2024/05/02 05:46:29;;;;;;;152.13;50.37;;;20.20;83.90;;;;;;5402879;26;20236;-49
2024/05/02 05:48:59;;;;;;;152.27;50.43;;;20.10;82.70;;;;;;5401521;26;20281;-49
2024/05/02 05:51:29;;;;;;;152.13;50.23;;;20.10;83.30;;;;;;5404822;26;20312;-49
2024/05/02 05:54:01;;;;;;;152.13;50.67;;;20.20;83.00;;;;;;5403460;26;20313;-49
2024/05/02 05:56:31;;;;;;;152.47;50.47;;;20.30;82.20;;;;;;5403865;26;20820;-50
2024/05/02 05:59:01;;;;;;;152.30;50.50;;;20.40;83.60;;;;;;5401879;26;20336;-51
2024/05/02 06:01:31;;;;;;;152.53;50.47;;;20.60;83.40;;;;;;5400926;26;20504;-48
2024/05/02 06:04:02;;;;;;;152.13;50.27;;;20.50;80.20;;;;;;5393808;26;20243;-48
2024/05/02 06:06:32;;;;;;;151.97;50.33;;;20.50;82.70;;;;;;5403426;26;20240;-49
2024/05/02 06:09:05;;;;;;;152.50;50.90;;;20.60;81.70;;;;;;5373987;26;20263;-49
2024/05/02 06:11:35;;;;;;;152.87;51.13;;;20.50;82.20;;;;;;5398014;26;20251;-48
2024/05/02 06:14:06;;;;;;;152.27;50.67;;;20.50;80.80;;;;;;5397690;26;20279;-48
2024/05/02 06:16:36;;;;;;;152.03;50.60;;;20.60;82.30;;;;;;5401976;26;20923;-48
2024/05/02 06:19:06;;;;;;;151.93;50.30;;;20.70;81.60;;;;;;5399157;26;20256;-49
2024/05/02 06:21:36;;;;;;;152.37;50.90;;;20.80;81.50;;;;;;5401304;26;20309;-49
2024/05/02 06:24:09;;;;;;;152.20;50.73;;;20.80;81.00;;;;;;5395585;26;20251;-51
2024/05/02 06:26:39;;;;;;;152.00;50.63;;;20.80;80.40;;;;;;5397447;26;20255;-49
2024/05/02 06:29:09;;;;;;;152.27;51.07;;;20.80;81.80;;;;;;5394247;26;20286;-49
2024/05/02 06:31:39;;;;;;;152.03;50.67;;;20.90;80.90;;;;;;5401099;26;20358;-49
2024/05/02 06:34:09;;;;;;;152.23;51.00;;;20.90;80.20;;;;;;5398200;26;20605;-49
2024/05/02 06:36:42;;;;;;;151.57;50.63;;;21.20;79.30;;;;;;5401066;26;20260;-49
2024/05/02 06:39:15;;;;;;;152.87;51.27;;;21.10;79.40;;;;;;5404993;26;20271;-49
2024/05/02 06:41:46;;;;;;;151.93;50.63;;;21.10;78.00;;;;;;5401991;26;20731;-49
2024/05/02 06:44:16;;;;;;;152.53;51.00;;;21.00;81.50;;;;;;5397806;26;20289;-49
2024/05/02 06:46:46;;;;;;;152.43;50.83;;;21.00;79.40;;;;;;5401562;26;20255;-49
2024/05/02 06:49:16;;;;;;;151.67;50.43;;;21.10;80.80;;;;;;5398140;26;20251;-49
2024/05/02 06:51:48;;;;;;;151.97;50.93;;;21.60;82.50;;;;;;5401567;26;20306;-49
2024/05/02 06:54:21;;;;;;;152.10;51.13;;;21.40;78.90;;;;;;5391921;26;20347;-50
2024/05/02 06:56:51;;;;;;;152.47;51.43;;;21.80;79.40;;;;;;5401006;26;21411;-50
2024/05/02 06:59:21;;;;;;;153.00;51.53;;;21.80;77.60;;;;;;5397532;26;20259;-50
2024/05/02 07:01:51;;;;;;;152.30;51.43;;;21.60;77.80;;;;;;5401391;26;20840;-51
2024/05/02 07:04:21;;;;;;;151.97;51.00;;;21.60;77.90;;;;;;5397037;26;20671;-50
2024/05/02 07:06:52;;;;;;;152.87;51.87;;;21.50;77.80;;;;;;5395827;26;20253;-49
2024/05/02 07:09:24;;;;;;;153.40;51.80;;;21.50;78.40;;;;;;5396507;26;20252;-50
2024/05/02 07:11:54;;;;;;;152.03;51.10;;;22.10;79.30;;;;;;5401942;26;20765;-50
2024/05/02 07:14:25;;;;;;;151.80;50.87;;;22.00;76.70;;;;;;5393924;26;20297;-50
2024/05/02 07:16:55;;;;;;;152.37;51.50;;;21.80;77.60;;;;;;5395501;26;20948;-50
2024/05/02 07:19:25;;;;;;;153.30;52.10;;;21.70;78.20;;;;;;5386456;26;20312;-52
2024/05/02 07:21:55;;;;;;;152.70;51.73;;;21.90;77.80;;;;;;5432548;26;20310;-50
2024/05/02 07:24:29;;;;;;;153.20;52.03;;;21.60;78.70;;;;;;5395753;26;20264;-49
2024/05/02 07:26:59;;;;;;;152.57;51.50;;;21.50;77.90;;;;;;5399599;26;20247;-50
2024/05/02 07:29:29;;;;;;;152.57;51.33;;;21.50;79.40;;;;;;5391484;26;20259;-49
2024/05/02 07:31:59;;;;;;;152.53;51.47;;;21.70;81.10;;;;;;5399496;26;20641;-49
2024/05/02 07:34:29;;;;;;;152.20;51.03;;;22.20;77.80;;;;;;5396442;26;20611;-50
2024/05/02 07:36:59;;;;;;;152.57;51.33;;;22.30;77.70;;;;;;5399871;26;20247;-50
2024/05/02 07:39:34;;;;;;;152.10;51.43;;;22.20;77.40;;;;;;5396100;26;20251;-51
2024/05/02 07:42:04;;;;;;;152.27;51.50;;;22.30;78.30;;;;;;5406134;26;20368;-50
2024/05/02 07:44:34;;;;;;;152.70;51.50;;;22.20;77.20;;;;;;5394550;26;20319;-51
2024/05/02 07:47:04;;;;;;;152.80;51.83;;;22.20;77.60;;;;;;5399803;26;20251;-50
2024/05/02 07:49:34;;;;;;;153.10;52.67;;;22.20;76.70;;;;;;5396674;26;20235;-49
2024/05/02 07:52:04;;;;;;;151.83;51.50;;;22.70;76.70;;;;;;5398832;26;20255;-56
2024/05/02 07:54:37;;;;;;;152.93;52.33;;;23.20;75.80;;;;;;5394135;26;20302;-51
2024/05/02 07:57:07;;;;;;;153.03;52.77;;;23.80;74.80;;;;;;5400526;26;20252;-50
2024/05/02 07:59:38;;;;;;;154.10;54.20;;;24.30;74.00;;;;;;5396194;26;20648;-51
2024/05/02 08:02:08;;;;;;;154.43;53.60;;;24.50;71.10;;;;;;5396368;26;20266;-52
2024/05/02 08:04:38;;;;;;;154.67;54.47;;;24.60;73.10;;;;;;5396750;26;20708;-52
2024/05/02 08:07:08;;;;;;;154.60;53.83;;;24.50;73.80;;;;;;5400240;26;20255;-51
2024/05/02 08:09:41;;;;;;;153.97;53.10;;;24.50;74.20;;;;;;5396716;26;20914;-50
2024/05/02 08:12:11;;;;;;;153.60;53.07;;;24.40;74.50;;;;;;5401645;26;20297;-50
2024/05/02 08:14:41;;;;;;;153.50;53.13;;;24.40;74.70;;;;;;5392561;26;20259;-50
2024/05/02 08:17:11;;;;;;;153.57;52.93;;;24.50;74.70;;;;;;5394204;26;20254;-51
2024/05/02 08:19:41;;;;;;;153.90;53.03;;;24.50;74.80;;;;;;5399207;26;20259;-50
2024/05/02 08:22:25;;;;;;;154.23;53.47;;;24.50;74.90;;;;;;5391252;26;20259;-50
2024/05/02 08:24:58;;;;;;;154.30;53.43;;;24.50;74.80;;;;;;5388448;26;20247;-52
2024/05/02 08:27:28;;;;;;;154.17;52.97;;;24.60;74.90;;;;;;5397204;26;20251;-51
2024/05/02 08:29:58;;;;;;;153.33;52.33;;;24.40;74.40;;;;;;5393290;26;20307;-50
2024/05/02 08:32:28;;;;;;;154.20;53.23;;;24.40;74.00;;;;;;5398982;26;20289;-51
2024/05/02 08:34:58;;;;;;;153.23;52.60;;;24.40;73.80;;;;;;5396722;26;20285;-51
2024/05/02 08:37:29;;;;;;;154.47;53.47;;;24.50;73.80;;;;;;5401418;26;20331;-51
2024/05/02 08:40:02;;;;;;;153.53;52.60;;;24.60;73.50;;;;;;5399730;26;20296;-51
2024/05/02 08:42:32;;;;;;;154.17;53.50;;;24.60;73.40;;;;;;5402877;26;20319;-51
2024/05/02 08:45:04;;;;;;;154.00;53.73;;;24.60;73.10;;;;;;5399052;26;20359;-52
2024/05/02 08:47:34;;;;;;;153.57;52.80;;;24.70;73.00;;;;;;5403619;26;20360;-51
2024/05/02 08:50:07;;;;;;;153.87;53.73;;;24.70;73.50;;;;;;5399754;26;21098;-51
2024/05/02 08:52:40;;;;;;;153.97;53.20;;;24.70;72.60;;;;;;5438569;26;20748;-51
2024/05/02 08:55:13;;;;;;;153.13;53.07;;;24.80;72.40;;;;;;5397249;26;20849;-51
2024/05/02 08:57:45;;;;;;;154.10;52.97;;;24.80;72.30;;;;;;5402528;26;20255;-51
2024/05/02 09:00:16;;;;;;;153.40;53.03;;;24.80;72.10;;;;;;5400228;26;20255;-51
2024/05/02 09:02:49;;;;;;;154.03;53.77;;;24.90;72.20;;;;;;5402611;26;20371;-51
2024/05/02 09:05:20;;;;;;;154.23;53.47;;;24.70;72.00;;;;;;5400126;26;20247;-52
2024/05/02 09:07:50;;;;;;;154.70;54.03;;;24.80;72.10;;;;;;5401343;26;20302;-52
2024/05/02 09:10:23;;;;;;;153.83;53.47;;;24.80;71.90;;;;;;5434586;26;20335;-51
2024/05/02 09:12:53;;;;;;;153.90;53.43;;;24.90;71.80;;;;;;5400006;26;20310;-52
2024/05/02 09:15:23;;;;;;;154.20;53.47;;;24.90;71.70;;;;;;5398813;26;20243;-51
2024/05/02 09:17:53;;;;;;;154.13;53.27;;;25.00;71.60;;;;;;5389577;26;20773;-51
2024/05/02 09:20:23;;;;;;;153.83;53.40;;;24.80;71.40;;;;;;5394057;26;20263;-54
2024/05/02 09:22:53;;;;;;;153.90;53.40;;;24.70;72.00;;;;;;5399568;26;20608;-51
2024/05/02 09:25:26;;;;;;;153.67;52.67;;;24.70;72.90;;;;;;5397591;26;21096;-50
2024/05/02 09:27:56;;;;;;;153.93;53.17;;;24.60;73.60;;;;;;5397853;26;20255;-52
2024/05/02 09:30:40;;;;;;;154.53;53.40;;;24.60;73.90;;;;;;5391105;26;20249;-52
2024/05/02 09:33:10;;;;;;;154.03;53.43;;;24.60;74.10;;;;;;5392018;26;20259;-51
2024/05/02 09:35:40;;;;;;;153.60;53.10;;;24.60;73.90;;;;;;5398692;26;20343;-52
2024/05/02 09:38:13;;;;;;;153.83;53.30;;;24.60;74.00;;;;;;5400766;26;20258;-51
2024/05/02 09:40:48;;;;;;;153.60;52.87;;;24.50;74.00;;;;;;5400779;26;20259;-52
2024/05/02 09:43:20;;;;;;;153.70;52.83;;;24.50;73.90;;;;;;5402962;26;20255;-51
2024/05/02 09:46:00;;;;;;;153.70;52.70;;;24.50;73.80;;;;;;5399092;26;20251;-51
2024/05/02 09:48:40;;;;;;;153.67;52.83;;;24.50;73.70;;;;;;5398458;26;20251;-50
2024/05/02 09:51:20;;;;;;;154.00;52.90;;;24.50;73.80;;;;;;5402687;26;20774;-50
2024/05/02 09:53:54;;;;;;;154.73;53.37;;;24.70;73.30;;;;;;5397468;26;20333;-50
2024/05/02 09:56:30;;;;;;;153.93;53.37;;;24.80;73.20;;;;;;5401115;26;20616;-50
2024/05/02 09:59:01;;;;;;;154.17;53.33;;;25.00;73.20;;;;;;5432682;26;20763;-50
2024/05/02 10:01:32;;;;;;;154.50;54.03;;;25.00;73.00;;;;;;5402312;26;20728;-50
2024/05/02 10:04:03;;;;;;;154.40;53.70;;;25.10;73.30;;;;;;5398459;26;20739;-51
2024/05/02 10:06:36;;;;;;;153.30;52.60;;;25.10;73.40;;;;;;5402643;26;20251;-50
2024/05/02 10:09:13;;;;;;;154.57;53.63;;;25.20;72.50;;;;;;5398587;26;20318;-51
2024/05/02 10:11:52;;;;;;;154.83;54.47;;;25.30;72.50;;;;;;5402220;26;20344;-52
2024/05/02 10:14:29;;;;;;;153.73;53.17;;;25.40;71.50;;;;;;5400100;26;20338;-52
2024/05/02 10:16:59;;;;;;;154.67;53.93;;;25.40;71.20;;;;;;5401797;26;20767;-52
2024/05/02 10:19:30;;;;;;;154.60;54.30;;;25.40;71.00;;;;;;5398996;26;20251;-54
2024/05/02 10:22:01;;;;;;;155.63;54.90;;;25.40;70.90;;;;;;5396565;26;20322;-51
2024/05/02 10:24:31;;;;;;;155.00;54.43;;;25.40;70.70;;;;;;5388620;26;20247;-50
2024/05/02 10:27:03;;;;;;;154.77;54.17;;;25.40;70.50;;;;;;5381696;26;20255;-48
2024/05/02 10:29:34;;;;;;;153.83;53.10;;;25.30;70.30;;;;;;5397717;26;20251;-48
2024/05/02 10:32:04;;;;;;;154.77;53.83;;;25.30;70.60;;;;;;5373307;26;20304;-48
2024/05/02 10:34:34;;;;;;;154.40;53.40;;;25.30;70.70;;;;;;5387343;26;20251;-50
2024/05/02 10:37:05;;;;;;;153.97;53.50;;;25.20;70.90;;;;;;5393846;26;20815;-47
2024/05/02 10:39:35;;;;;;;154.70;54.03;;;25.50;71.20;;;;;;5394679;26;20710;-47
2024/05/02 10:42:09;;;;;;;155.17;54.53;;;25.70;70.80;;;;;;5399556;26;20298;-49
2024/05/02 10:44:39;;;;;;;154.67;54.17;;;25.90;70.70;;;;;;5394311;26;20324;-50
2024/05/02 10:47:09;;;;;;;155.03;54.97;;;25.90;71.50;;;;;;5399595;26;20722;-50
2024/05/02 10:49:39;;;;;;;155.63;55.20;;;26.00;72.20;;;;;;5397108;26;20310;-50
2024/05/02 10:52:10;;;;;;;154.83;54.57;;;26.10;72.50;;;;;;5401785;26;20260;-50
2024/05/02 10:54:40;;;;;;;155.47;55.40;;;26.10;72.30;;;;;;5431317;26;20656;-51
2024/05/02 10:57:14;;;;;;;155.37;55.10;;;26.20;72.90;;;;;;5401140;26;20247;-51
2024/05/02 10:59:45;;;;;;;155.03;54.70;;;26.10;72.80;;;;;;5394780;26;20247;-50
2024/05/02 11:02:16;;;;;;;155.50;55.03;;;26.00;72.90;;;;;;5398794;26;20255;-50
2024/05/02 11:04:46;;;;;;;155.13;54.60;;;26.00;72.60;;;;;;5391928;26;20832;-51
2024/05/02 11:07:17;;;;;;;154.83;54.90;;;26.20;72.40;;;;;;5401027;26;20248;-50
2024/05/02 11:09:47;;;;;;;155.73;55.63;;;26.20;72.50;;;;;;5397975;26;20302;-50
2024/05/02 11:12:23;;;;;;;155.13;55.03;;;26.20;72.50;;;;;;5436993;26;20252;-51
2024/05/02 11:14:54;;;;;;;155.70;55.47;;;26.20;72.50;;;;;;5396813;26;20305;-50
2024/05/02 11:17:25;;;;;;;154.93;54.77;;;26.20;72.50;;;;;;5401490;26;20302;-50
2024/05/02 11:19:55;;;;;;;156.53;56.37;;;26.20;72.40;;;;;;5395819;26;20262;-51
2024/05/02 11:22:26;;;;;;;155.53;55.60;;;26.30;72.00;;;;;;5398918;26;20252;-50
2024/05/02 11:24:58;;;;;;;155.27;55.07;;;26.20;71.60;;;;;;5388724;26;20338;-51
2024/05/02 11:27:31;;;;;;;155.73;55.30;;;26.20;71.70;;;;;;5392851;26;20319;-50
2024/05/02 11:30:01;;;;;;;156.03;56.03;;;26.20;71.80;;;;;;5390277;26;20251;-50
2024/05/02 11:32:31;;;;;;;155.30;54.87;;;26.20;72.00;;;;;;5371041;26;20268;-53
2024/05/02 11:35:02;;;;;;;154.63;54.23;;;26.20;71.20;;;;;;5393601;26;20255;-52
2024/05/02 11:37:35;;;;;;;155.20;55.43;;;25.90;70.90;;;;;;5399210;26;20368;-53
2024/05/02 11:40:07;;;;;;;156.23;55.47;;;25.90;71.70;;;;;;5363032;26;20336;-52
2024/05/02 11:42:39;;;;;;;154.87;54.33;;;25.90;71.30;;;;;;5404084;26;20266;-52
2024/05/02 11:45:10;;;;;;;156.00;55.47;;;25.90;70.90;;;;;;5394252;26;20247;-53
2024/05/02 11:47:42;;;;;;;154.87;54.27;;;25.90;70.00;;;;;;5403809;26;20335;-53
2024/05/02 11:50:12;;;;;;;155.50;55.17;;;25.90;69.60;;;;;;5391366;26;20830;-52
2024/05/02 11:52:42;;;;;;;155.27;54.93;;;26.00;70.50;;;;;;5403917;26;20224;-52
2024/05/02 11:55:13;;;;;;;155.77;55.30;;;26.00;70.20;;;;;;5393266;26;20351;-53
2024/05/02 11:57:45;;;;;;;155.00;55.23;;;26.00;69.80;;;;;;5403196;26;20235;-55
2024/05/02 12:00:15;;;;;;;155.40;55.17;;;26.00;68.80;;;;;;5393350;26;20271;-52
2024/05/02 12:02:46;;;;;;;155.87;55.77;;;26.20;67.50;;;;;;5391173;26;20262;-51
2024/05/02 12:05:16;;;;;;;156.23;55.90;;;26.30;64.90;;;;;;5394477;26;20322;-51
2024/05/02 12:07:46;;;;;;;155.97;55.73;;;26.30;61.30;;;;;;5391024;26;20828;-49
2024/05/02 12:10:17;;;;;;;156.27;56.00;;;26.30;63.90;;;;;;5393268;26;20310;-50
2024/05/02 12:12:52;;;;;;;156.00;56.00;;;26.40;63.40;;;;;;5392547;26;20255;-50
2024/05/02 12:15:22;;;;;;;155.60;55.60;;;26.40;62.30;;;;;;5398116;26;20338;-54
2024/05/02 12:17:52;;;;;;;155.77;55.87;;;26.40;60.50;;;;;;5395797;26;20362;-51
2024/05/02 12:20:22;;;;;;;155.70;55.97;;;26.40;63.40;;;;;;5398755;26;20243;-51
2024/05/02 12:22:52;;;;;;;156.20;55.87;;;26.50;62.10;;;;;;5387881;26;20260;-47
2024/05/02 12:25:22;;;;;;;155.87;56.33;;;26.50;60.60;;;;;;5396676;26;20243;-47
2024/05/02 12:27:55;;;;;;;156.03;55.87;;;26.40;60.20;;;;;;5393383;26;20286;-48
2024/05/02 12:30:26;;;;;;;155.33;55.30;;;26.40;59.80;;;;;;5397296;26;20794;-48
2024/05/02 12:32:56;;;;;;;155.90;55.83;;;26.40;59.20;;;;;;5396412;26;20255;-48
2024/05/02 12:35:26;;;;;;;155.23;55.57;;;26.20;59.50;;;;;;5396416;26;20304;-47
2024/05/02 12:37:56;;;;;;;154.80;54.60;;;26.30;59.30;;;;;;5393344;26;20289;-47